Terminal Aerodrome Forecast
Issued by NWS

Home | Current Version | Previous Version | Text Only | Print | Product List | Glossary On
Versions: 1 2 3 4 5 6 7 8 9 10 11 12 13 14 15 16 17 18 19 20 21 22 23 24 25 26 27 28 29 30 31 32 33 34 35 36 37 38 39 40 41 42 43 44 45 46 47 48 49 50
000
FTUS46 KMFR 221122
TAFOTH
TAF
KOTH 221122Z 2212/2312 VRB03KT P6SM OVC015
     FM221700 33008KT P6SM SCT020
     FM221900 34012G20KT P6SM SKC
     FM230300 35009KT P6SM OVC012
     FM230600 VRB03KT P6SM OVC008=

USA.gov is the U.S. government's official web portal to all federal, state and local government web resources and services.